Plymouth, California
Current Conditions -  °F | °C
As of 7:35 AM on Saturday 25 Oct 2014 (Local Time) from KPVF Reporting Station
Scattered Clouds Scattered Clouds  
Wind Chill: 55°   Ceiling: Unl
Heat Index: 55°   Visibility: 10mi
Dew Point: 41°   Wind: 16mph
Humidity: 58%   Direction: 150°SSE
Pressure: 30"   Gusts: NA
Location:  38.48°N, 120.84°W
Report Text: KPVF 251435Z AUTO 15014KT 10SM SCT070 13/05 A3000 RMK AO1
Loading
Personal Weather Stations






























Interactive Weather Map New forecast layout! Learn more

10-Day Weather Forecast

Advertisements
Track Severe Weather on mobile